sensor_id;sensor_type;location;lat;lon;timestamp;P1;durP1;ratioP1;P2;durP2;ratioP2
23236;SDS011;11787;52.018;8.570;2022-12-05T00:00:25;33.60;;;18.48;;
23236;SDS011;11787;52.018;8.570;2022-12-05T00:06:12;31.33;;;17.92;;
23236;SDS011;11787;52.018;8.570;2022-12-05T00:08:38;36.15;;;18.85;;
23236;SDS011;11787;52.018;8.570;2022-12-05T00:11:09;32.53;;;18.08;;
23236;SDS011;11787;52.018;8.570;2022-12-05T00:13:39;32.75;;;18.50;;
23236;SDS011;11787;52.018;8.570;2022-12-05T00:16:07;31.73;;;18.48;;
23236;SDS011;11787;52.018;8.570;2022-12-05T00:18:33;33.70;;;18.15;;
23236;SDS011;11787;52.018;8.570;2022-12-05T00:20:59;34.13;;;19.60;;
23236;SDS011;11787;52.018;8.570;2022-12-05T00:23:24;30.83;;;18.58;;
23236;SDS011;11787;52.018;8.570;2022-12-05T00:25:50;32.08;;;18.85;;
23236;SDS011;11787;52.018;8.570;2022-12-05T00:28:16;29.70;;;17.85;;
23236;SDS011;11787;52.018;8.570;2022-12-05T00:30:41;29.25;;;16.83;;
23236;SDS011;11787;52.018;8.570;2022-12-05T00:36:30;30.80;;;16.98;;
23236;SDS011;11787;52.018;8.570;2022-12-05T00:39:00;29.25;;;17.25;;
23236;SDS011;11787;52.018;8.570;2022-12-05T00:41:29;33.33;;;17.48;;
23236;SDS011;11787;52.018;8.570;2022-12-05T00:43:56;27.35;;;16.73;;
23236;SDS011;11787;52.018;8.570;2022-12-05T00:46:23;27.00;;;16.17;;
23236;SDS011;11787;52.018;8.570;2022-12-05T00:48:52;31.85;;;18.00;;
23236;SDS011;11787;52.018;8.570;2022-12-05T00:51:19;30.35;;;17.42;;
23236;SDS011;11787;52.018;8.570;2022-12-05T00:53:48;28.08;;;16.73;;
23236;SDS011;11787;52.018;8.570;2022-12-05T00:56:15;26.13;;;15.75;;
23236;SDS011;11787;52.018;8.570;2022-12-05T00:58:43;28.98;;;16.60;;
23236;SDS011;11787;52.018;8.570;2022-12-05T01:01:10;26.65;;;15.60;;
23236;SDS011;11787;52.018;8.570;2022-12-05T01:03:41;27.83;;;16.65;;
23236;SDS011;11787;52.018;8.570;2022-12-05T01:09:29;26.90;;;15.32;;
23236;SDS011;11787;52.018;8.570;2022-12-05T01:11:54;24.40;;;15.57;;
23236;SDS011;11787;52.018;8.570;2022-12-05T01:14:21;27.73;;;15.98;;
23236;SDS011;11787;52.018;8.570;2022-12-05T01:16:49;27.98;;;16.17;;
23236;SDS011;11787;52.018;8.570;2022-12-05T01:19:17;28.65;;;16.23;;
23236;SDS011;11787;52.018;8.570;2022-12-05T01:21:45;28.65;;;16.73;;
23236;SDS011;11787;52.018;8.570;2022-12-05T01:24:12;32.00;;;16.63;;
23236;SDS011;11787;52.018;8.570;2022-12-05T01:26:39;28.45;;;15.85;;
23236;SDS011;11787;52.018;8.570;2022-12-05T01:29:05;24.90;;;15.10;;
23236;SDS011;11787;52.018;8.570;2022-12-05T01:31:32;25.95;;;16.48;;
23236;SDS011;11787;52.018;8.570;2022-12-05T01:34:00;25.30;;;14.98;;
23236;SDS011;11787;52.018;8.570;2022-12-05T01:36:29;24.55;;;15.48;;
23236;SDS011;11787;52.018;8.570;2022-12-05T01:38:55;28.13;;;16.80;;
23236;SDS011;11787;52.018;8.570;2022-12-05T01:41:29;28.90;;;15.55;;
23236;SDS011;11787;52.018;8.570;2022-12-05T01:44:04;25.55;;;14.93;;
23236;SDS011;11787;52.018;8.570;2022-12-05T01:46:30;26.92;;;14.73;;
23236;SDS011;11787;52.018;8.570;2022-12-05T01:49:08;27.40;;;15.20;;
23236;SDS011;11787;52.018;8.570;2022-12-05T01:51:39;24.13;;;15.13;;
23236;SDS011;11787;52.018;8.570;2022-12-05T01:54:09;24.63;;;15.50;;
23236;SDS011;11787;52.018;8.570;2022-12-05T01:56:35;26.40;;;15.43;;
23236;SDS011;11787;52.018;8.570;2022-12-05T01:59:04;26.23;;;15.98;;
23236;SDS011;11787;52.018;8.570;2022-12-05T02:01:31;25.15;;;15.40;;
23236;SDS011;11787;52.018;8.570;2022-12-05T02:03:57;23.55;;;15.32;;
23236;SDS011;11787;52.018;8.570;2022-12-05T02:06:23;26.08;;;15.43;;
23236;SDS011;11787;52.018;8.570;2022-12-05T02:08:51;25.55;;;15.25;;
23236;SDS011;11787;52.018;8.570;2022-12-05T02:11:17;26.73;;;16.30;;
23236;SDS011;11787;52.018;8.570;2022-12-05T02:22:48;24.05;;;15.35;;
23236;SDS011;11787;52.018;8.570;2022-12-05T02:37:51;23.35;;;14.57;;
23236;SDS011;11787;52.018;8.570;2022-12-05T02:40:30;26.67;;;15.25;;
23236;SDS011;11787;52.018;8.570;2022-12-05T02:43:04;23.67;;;14.57;;
23236;SDS011;11787;52.018;8.570;2022-12-05T02:45:36;23.80;;;14.60;;
23236;SDS011;11787;52.018;8.570;2022-12-05T02:48:03;25.02;;;15.07;;
23236;SDS011;11787;52.018;8.570;2022-12-05T02:50:32;24.88;;;14.05;;
23236;SDS011;11787;52.018;8.570;2022-12-05T02:53:02;24.00;;;15.30;;
23236;SDS011;11787;52.018;8.570;2022-12-05T02:55:33;25.30;;;15.32;;
23236;SDS011;11787;52.018;8.570;2022-12-05T02:58:00;24.48;;;15.20;;
23236;SDS011;11787;52.018;8.570;2022-12-05T03:00:29;28.88;;;15.93;;
23236;SDS011;11787;52.018;8.570;2022-12-05T03:02:55;23.23;;;14.85;;
23236;SDS011;11787;52.018;8.570;2022-12-05T03:07:58;27.13;;;14.77;;
23236;SDS011;11787;52.018;8.570;2022-12-05T03:10:28;25.40;;;14.50;;
23236;SDS011;11787;52.018;8.570;2022-12-05T03:12:56;25.58;;;15.48;;
23236;SDS011;11787;52.018;8.570;2022-12-05T03:15:28;26.13;;;15.85;;
23236;SDS011;11787;52.018;8.570;2022-12-05T03:18:00;23.13;;;13.88;;
23236;SDS011;11787;52.018;8.570;2022-12-05T03:20:33;25.37;;;14.23;;
23236;SDS011;11787;52.018;8.570;2022-12-05T03:23:05;23.27;;;13.77;;
23236;SDS011;11787;52.018;8.570;2022-12-05T03:25:45;22.37;;;13.73;;
23236;SDS011;11787;52.018;8.570;2022-12-05T03:28:19;20.98;;;13.45;;
23236;SDS011;11787;52.018;8.570;2022-12-05T03:30:55;22.88;;;14.30;;
23236;SDS011;11787;52.018;8.570;2022-12-05T03:33:27;22.75;;;14.55;;
23236;SDS011;11787;52.018;8.570;2022-12-05T03:36:01;25.38;;;14.75;;
23236;SDS011;11787;52.018;8.570;2022-12-05T03:38:34;23.10;;;14.98;;
23236;SDS011;11787;52.018;8.570;2022-12-05T03:43:45;24.67;;;14.65;;
23236;SDS011;11787;52.018;8.570;2022-12-05T03:46:23;27.00;;;15.45;;
23236;SDS011;11787;52.018;8.570;2022-12-05T03:48:55;26.33;;;15.07;;
23236;SDS011;11787;52.018;8.570;2022-12-05T03:51:26;23.95;;;14.40;;
23236;SDS011;11787;52.018;8.570;2022-12-05T03:53:58;27.05;;;14.93;;
23236;SDS011;11787;52.018;8.570;2022-12-05T03:56:38;21.45;;;13.52;;
23236;SDS011;11787;52.018;8.570;2022-12-05T04:01:51;23.98;;;15.40;;
23236;SDS011;11787;52.018;8.570;2022-12-05T04:04:33;23.83;;;14.07;;
23236;SDS011;11787;52.018;8.570;2022-12-05T04:07:05;25.67;;;14.20;;
23236;SDS011;11787;52.018;8.570;2022-12-05T04:09:36;26.55;;;14.85;;
23236;SDS011;11787;52.018;8.570;2022-12-05T04:12:09;24.27;;;15.45;;
23236;SDS011;11787;52.018;8.570;2022-12-05T04:14:42;23.90;;;14.50;;
23236;SDS011;11787;52.018;8.570;2022-12-05T04:17:15;24.00;;;14.20;;
23236;SDS011;11787;52.018;8.570;2022-12-05T04:20:01;24.67;;;14.68;;
23236;SDS011;11787;52.018;8.570;2022-12-05T04:22:49;23.30;;;14.63;;
23236;SDS011;11787;52.018;8.570;2022-12-05T04:25:15;20.92;;;14.00;;
23236;SDS011;11787;52.018;8.570;2022-12-05T04:30:45;24.77;;;14.23;;
23236;SDS011;11787;52.018;8.570;2022-12-05T04:36:00;24.20;;;14.40;;
23236;SDS011;11787;52.018;8.570;2022-12-05T04:38:32;23.60;;;14.60;;
23236;SDS011;11787;52.018;8.570;2022-12-05T04:41:00;25.50;;;14.90;;
23236;SDS011;11787;52.018;8.570;2022-12-05T04:43:31;20.65;;;14.10;;
23236;SDS011;11787;52.018;8.570;2022-12-05T04:46:00;24.63;;;15.02;;
23236;SDS011;11787;52.018;8.570;2022-12-05T04:48:30;27.17;;;16.65;;
23236;SDS011;11787;52.018;8.570;2022-12-05T04:51:01;41.55;;;23.33;;
23236;SDS011;11787;52.018;8.570;2022-12-05T04:53:28;27.13;;;17.02;;
23236;SDS011;11787;52.018;8.570;2022-12-05T04:55:55;27.77;;;16.65;;
23236;SDS011;11787;52.018;8.570;2022-12-05T04:58:24;26.98;;;15.73;;
23236;SDS011;11787;52.018;8.570;2022-12-05T05:06:12;23.67;;;15.13;;
23236;SDS011;11787;52.018;8.570;2022-12-05T05:08:48;27.25;;;15.93;;
23236;SDS011;11787;52.018;8.570;2022-12-05T05:11:17;26.10;;;15.93;;
23236;SDS011;11787;52.018;8.570;2022-12-05T05:13:46;27.17;;;15.70;;
23236;SDS011;11787;52.018;8.570;2022-12-05T05:16:16;25.35;;;15.52;;
23236;SDS011;11787;52.018;8.570;2022-12-05T05:18:44;23.25;;;14.88;;
23236;SDS011;11787;52.018;8.570;2022-12-05T05:21:53;26.23;;;16.27;;
23236;SDS011;11787;52.018;8.570;2022-12-05T05:24:01;27.52;;;15.00;;
23236;SDS011;11787;52.018;8.570;2022-12-05T05:26:28;24.75;;;15.82;;
23236;SDS011;11787;52.018;8.570;2022-12-05T05:28:55;26.45;;;16.45;;
23236;SDS011;11787;52.018;8.570;2022-12-05T05:31:21;33.00;;;19.50;;
23236;SDS011;11787;52.018;8.570;2022-12-05T05:37:10;27.50;;;17.17;;
23236;SDS011;11787;52.018;8.570;2022-12-05T05:39:35;29.35;;;17.75;;
23236;SDS011;11787;52.018;8.570;2022-12-05T05:42:01;27.73;;;16.33;;
23236;SDS011;11787;52.018;8.570;2022-12-05T05:44:26;25.80;;;15.98;;
23236;SDS011;11787;52.018;8.570;2022-12-05T05:46:52;29.33;;;19.15;;
23236;SDS011;11787;52.018;8.570;2022-12-05T05:49:18;29.20;;;18.55;;
23236;SDS011;11787;52.018;8.570;2022-12-05T05:51:44;27.50;;;17.15;;
23236;SDS011;11787;52.018;8.570;2022-12-05T05:54:09;24.75;;;16.00;;
23236;SDS011;11787;52.018;8.570;2022-12-05T05:56:35;27.80;;;17.95;;
23236;SDS011;11787;52.018;8.570;2022-12-05T05:59:01;25.92;;;17.98;;
23236;SDS011;11787;52.018;8.570;2022-12-05T06:01:27;25.80;;;16.52;;
23236;SDS011;11787;52.018;8.570;2022-12-05T06:03:54;23.13;;;15.70;;
23236;SDS011;11787;52.018;8.570;2022-12-05T06:06:20;27.50;;;16.02;;
23236;SDS011;11787;52.018;8.570;2022-12-05T06:08:46;29.42;;;19.17;;
23236;SDS011;11787;52.018;8.570;2022-12-05T06:11:16;28.15;;;18.13;;
23236;SDS011;11787;52.018;8.570;2022-12-05T06:13:46;29.02;;;17.95;;
23236;SDS011;11787;52.018;8.570;2022-12-05T06:16:13;25.38;;;15.80;;
23236;SDS011;11787;52.018;8.570;2022-12-05T06:18:40;23.30;;;15.52;;
23236;SDS011;11787;52.018;8.570;2022-12-05T06:21:06;21.42;;;13.98;;
23236;SDS011;11787;52.018;8.570;2022-12-05T06:23:35;24.77;;;15.15;;
23236;SDS011;11787;52.018;8.570;2022-12-05T06:26:01;23.00;;;14.35;;
23236;SDS011;11787;52.018;8.570;2022-12-05T06:28:28;24.58;;;15.43;;
23236;SDS011;11787;52.018;8.570;2022-12-05T06:30:54;22.30;;;14.25;;
23236;SDS011;11787;52.018;8.570;2022-12-05T06:33:20;23.63;;;15.35;;
23236;SDS011;11787;52.018;8.570;2022-12-05T06:35:46;21.63;;;14.60;;
23236;SDS011;11787;52.018;8.570;2022-12-05T06:38:11;25.33;;;15.27;;
23236;SDS011;11787;52.018;8.570;2022-12-05T06:40:41;21.25;;;14.18;;
23236;SDS011;11787;52.018;8.570;2022-12-05T06:43:07;20.58;;;14.30;;
23236;SDS011;11787;52.018;8.570;2022-12-05T06:45:33;21.48;;;14.32;;
23236;SDS011;11787;52.018;8.570;2022-12-05T06:47:59;23.63;;;15.27;;
23236;SDS011;11787;52.018;8.570;2022-12-05T06:50:24;22.25;;;14.15;;
23236;SDS011;11787;52.018;8.570;2022-12-05T06:52:50;19.75;;;13.63;;
23236;SDS011;11787;52.018;8.570;2022-12-05T06:55:16;21.75;;;14.07;;
23236;SDS011;11787;52.018;8.570;2022-12-05T06:57:41;22.65;;;14.45;;
23236;SDS011;11787;52.018;8.570;2022-12-05T07:00:07;22.45;;;14.90;;
23236;SDS011;11787;52.018;8.570;2022-12-05T07:02:52;20.45;;;13.60;;
23236;SDS011;11787;52.018;8.570;2022-12-05T07:05:17;24.80;;;15.52;;
23236;SDS011;11787;52.018;8.570;2022-12-05T07:07:44;23.13;;;13.60;;
23236;SDS011;11787;52.018;8.570;2022-12-05T07:10:10;23.55;;;14.68;;
23236;SDS011;11787;52.018;8.570;2022-12-05T07:12:36;21.67;;;14.52;;
23236;SDS011;11787;52.018;8.570;2022-12-05T07:15:01;18.90;;;13.32;;
23236;SDS011;11787;52.018;8.570;2022-12-05T07:17:27;20.40;;;12.55;;
23236;SDS011;11787;52.018;8.570;2022-12-05T07:19:53;22.13;;;14.18;;
23236;SDS011;11787;52.018;8.570;2022-12-05T07:22:20;20.10;;;13.75;;
23236;SDS011;11787;52.018;8.570;2022-12-05T07:24:46;20.95;;;13.63;;
23236;SDS011;11787;52.018;8.570;2022-12-05T07:27:13;20.20;;;13.57;;
23236;SDS011;11787;52.018;8.570;2022-12-05T07:29:39;19.45;;;12.38;;
23236;SDS011;11787;52.018;8.570;2022-12-05T07:32:06;21.85;;;13.57;;
23236;SDS011;11787;52.018;8.570;2022-12-05T07:34:32;19.73;;;13.15;;
23236;SDS011;11787;52.018;8.570;2022-12-05T07:36:58;21.38;;;13.60;;
23236;SDS011;11787;52.018;8.570;2022-12-05T07:39:24;19.30;;;13.43;;
23236;SDS011;11787;52.018;8.570;2022-12-05T07:41:50;22.55;;;13.30;;
23236;SDS011;11787;52.018;8.570;2022-12-05T07:44:15;19.48;;;12.77;;
23236;SDS011;11787;52.018;8.570;2022-12-05T07:46:41;17.77;;;12.15;;
23236;SDS011;11787;52.018;8.570;2022-12-05T07:49:07;19.25;;;12.50;;
23236;SDS011;11787;52.018;8.570;2022-12-05T07:51:33;19.20;;;11.98;;
23236;SDS011;11787;52.018;8.570;2022-12-05T07:53:59;17.83;;;11.88;;
23236;SDS011;11787;52.018;8.570;2022-12-05T07:56:25;18.80;;;12.13;;
23236;SDS011;11787;52.018;8.570;2022-12-05T07:58:51;17.27;;;11.65;;
23236;SDS011;11787;52.018;8.570;2022-12-05T08:04:40;17.63;;;11.70;;
23236;SDS011;11787;52.018;8.570;2022-12-05T08:10:27;20.48;;;11.63;;
23236;SDS011;11787;52.018;8.570;2022-12-05T08:12:53;17.58;;;11.90;;
23236;SDS011;11787;52.018;8.570;2022-12-05T08:15:18;18.95;;;12.65;;
23236;SDS011;11787;52.018;8.570;2022-12-05T08:17:44;18.27;;;11.82;;
23236;SDS011;11787;52.018;8.570;2022-12-05T08:20:09;18.20;;;10.95;;
23236;SDS011;11787;52.018;8.570;2022-12-05T08:22:35;16.70;;;11.60;;
23236;SDS011;11787;52.018;8.570;2022-12-05T08:25:01;16.85;;;11.30;;
23236;SDS011;11787;52.018;8.570;2022-12-05T08:27:27;17.98;;;12.48;;
23236;SDS011;11787;52.018;8.570;2022-12-05T08:29:53;16.20;;;11.43;;
23236;SDS011;11787;52.018;8.570;2022-12-05T08:35:40;17.95;;;12.20;;
23236;SDS011;11787;52.018;8.570;2022-12-05T08:38:06;17.63;;;11.88;;
23236;SDS011;11787;52.018;8.570;2022-12-05T08:40:31;17.60;;;11.43;;
23236;SDS011;11787;52.018;8.570;2022-12-05T08:42:57;19.60;;;13.18;;
23236;SDS011;11787;52.018;8.570;2022-12-05T08:45:22;16.65;;;11.18;;
23236;SDS011;11787;52.018;8.570;2022-12-05T08:47:48;16.70;;;11.43;;
23236;SDS011;11787;52.018;8.570;2022-12-05T08:50:13;17.55;;;10.88;;
23236;SDS011;11787;52.018;8.570;2022-12-05T08:52:39;16.35;;;11.15;;
23236;SDS011;11787;52.018;8.570;2022-12-05T08:55:04;15.02;;;10.27;;
23236;SDS011;11787;52.018;8.570;2022-12-05T08:57:30;16.08;;;10.65;;
23236;SDS011;11787;52.018;8.570;2022-12-05T08:59:56;15.43;;;11.10;;
23236;SDS011;11787;52.018;8.570;2022-12-05T09:02:22;17.50;;;10.07;;
23236;SDS011;11787;52.018;8.570;2022-12-05T09:04:50;15.77;;;10.30;;
23236;SDS011;11787;52.018;8.570;2022-12-05T09:07:16;14.80;;;10.00;;
23236;SDS011;11787;52.018;8.570;2022-12-05T09:09:42;14.43;;;10.38;;
23236;SDS011;11787;52.018;8.570;2022-12-05T09:12:07;14.38;;;10.23;;
23236;SDS011;11787;52.018;8.570;2022-12-05T09:14:33;15.02;;;11.18;;
23236;SDS011;11787;52.018;8.570;2022-12-05T09:16:59;12.75;;;9.90;;
23236;SDS011;11787;52.018;8.570;2022-12-05T09:22:46;15.38;;;10.63;;
23236;SDS011;11787;52.018;8.570;2022-12-05T09:28:34;16.83;;;11.07;;
23236;SDS011;11787;52.018;8.570;2022-12-05T09:31:01;15.02;;;10.63;;
23236;SDS011;11787;52.018;8.570;2022-12-05T09:33:28;14.98;;;10.63;;
23236;SDS011;11787;52.018;8.570;2022-12-05T09:35:55;15.30;;;10.40;;
23236;SDS011;11787;52.018;8.570;2022-12-05T09:38:21;13.85;;;10.30;;
23236;SDS011;11787;52.018;8.570;2022-12-05T09:40:52;18.17;;;11.00;;
23236;SDS011;11787;52.018;8.570;2022-12-05T09:43:35;15.30;;;10.85;;
23236;SDS011;11787;52.018;8.570;2022-12-05T09:46:17;13.85;;;10.23;;
23236;SDS011;11787;52.018;8.570;2022-12-05T09:52:24;15.35;;;10.27;;
23236;SDS011;11787;52.018;8.570;2022-12-05T09:55:00;17.90;;;11.40;;
23236;SDS011;11787;52.018;8.570;2022-12-05T09:57:55;16.45;;;11.18;;
23236;SDS011;11787;52.018;8.570;2022-12-05T10:00:22;15.15;;;10.80;;
23236;SDS011;11787;52.018;8.570;2022-12-05T10:14:36;24.02;;;15.27;;
23236;SDS011;11787;52.018;8.570;2022-12-05T10:17:34;25.27;;;16.05;;
23236;SDS011;11787;52.018;8.570;2022-12-05T10:20:04;37.58;;;23.13;;
23236;SDS011;11787;52.018;8.570;2022-12-05T10:26:01;14.77;;;10.13;;
23236;SDS011;11787;52.018;8.570;2022-12-05T10:31:17;14.57;;;10.48;;
23236;SDS011;11787;52.018;8.570;2022-12-05T10:33:50;12.77;;;9.80;;
23236;SDS011;11787;52.018;8.570;2022-12-05T10:36:22;13.98;;;10.02;;
23236;SDS011;11787;52.018;8.570;2022-12-05T10:38:48;14.05;;;10.25;;
23236;SDS011;11787;52.018;8.570;2022-12-05T10:41:15;13.70;;;9.80;;
23236;SDS011;11787;52.018;8.570;2022-12-05T10:43:42;13.85;;;10.30;;
23236;SDS011;11787;52.018;8.570;2022-12-05T10:46:09;15.55;;;9.90;;
23236;SDS011;11787;52.018;8.570;2022-12-05T10:48:38;13.05;;;9.23;;
23236;SDS011;11787;52.018;8.570;2022-12-05T10:51:05;13.48;;;9.25;;
23236;SDS011;11787;52.018;8.570;2022-12-05T10:53:39;18.08;;;12.05;;
23236;SDS011;11787;52.018;8.570;2022-12-05T10:59:43;15.55;;;11.40;;
23236;SDS011;11787;52.018;8.570;2022-12-05T11:02:17;15.25;;;12.02;;
23236;SDS011;11787;52.018;8.570;2022-12-05T11:04:52;13.48;;;10.43;;
23236;SDS011;11787;52.018;8.570;2022-12-05T11:07:35;13.32;;;11.32;;
23236;SDS011;11787;52.018;8.570;2022-12-05T11:35:25;17.52;;;11.50;;
23236;SDS011;11787;52.018;8.570;2022-12-05T11:37:55;16.17;;;11.13;;
23236;SDS011;11787;52.018;8.570;2022-12-05T11:45:26;13.75;;;10.80;;
23236;SDS011;11787;52.018;8.570;2022-12-05T11:48:23;13.50;;;10.48;;
23236;SDS011;11787;52.018;8.570;2022-12-05T12:00:05;13.25;;;10.73;;
23236;SDS011;11787;52.018;8.570;2022-12-05T12:13:22;11.70;;;9.35;;
23236;SDS011;11787;52.018;8.570;2022-12-05T12:19:02;10.63;;;9.25;;
23236;SDS011;11787;52.018;8.570;2022-12-05T12:22:06;11.68;;;9.52;;
23236;SDS011;11787;52.018;8.570;2022-12-05T12:31:13;11.95;;;9.73;;
23236;SDS011;11787;52.018;8.570;2022-12-05T12:36:49;11.98;;;9.65;;
23236;SDS011;11787;52.018;8.570;2022-12-05T12:42:02;11.52;;;9.45;;
23236;SDS011;11787;52.018;8.570;2022-12-05T12:50:49;9.75;;;8.10;;
23236;SDS011;11787;52.018;8.570;2022-12-05T13:02:07;11.18;;;8.90;;
23236;SDS011;11787;52.018;8.570;2022-12-05T13:04:52;12.50;;;9.52;;
23236;SDS011;11787;52.018;8.570;2022-12-05T13:07:30;11.25;;;9.07;;
23236;SDS011;11787;52.018;8.570;2022-12-05T13:12:54;12.35;;;9.38;;
23236;SDS011;11787;52.018;8.570;2022-12-05T13:15:27;10.68;;;9.13;;
23236;SDS011;11787;52.018;8.570;2022-12-05T13:21:17;10.85;;;9.27;;
23236;SDS011;11787;52.018;8.570;2022-12-05T13:23:50;10.70;;;8.73;;
23236;SDS011;11787;52.018;8.570;2022-12-05T13:26:19;9.95;;;8.68;;
23236;SDS011;11787;52.018;8.570;2022-12-05T13:31:40;11.35;;;8.65;;
23236;SDS011;11787;52.018;8.570;2022-12-05T13:34:32;10.13;;;8.45;;
23236;SDS011;11787;52.018;8.570;2022-12-05T13:37:20;11.60;;;9.40;;
23236;SDS011;11787;52.018;8.570;2022-12-05T13:40:52;9.63;;;8.10;;
23236;SDS011;11787;52.018;8.570;2022-12-05T13:43:16;9.85;;;8.13;;
23236;SDS011;11787;52.018;8.570;2022-12-05T13:45:56;12.07;;;8.93;;
23236;SDS011;11787;52.018;8.570;2022-12-05T13:48:31;9.80;;;8.45;;
23236;SDS011;11787;52.018;8.570;2022-12-05T13:51:05;10.13;;;9.00;;
23236;SDS011;11787;52.018;8.570;2022-12-05T13:58:44;11.23;;;8.90;;
23236;SDS011;11787;52.018;8.570;2022-12-05T14:09:03;10.85;;;8.95;;
23236;SDS011;11787;52.018;8.570;2022-12-05T14:11:29;10.98;;;9.30;;
23236;SDS011;11787;52.018;8.570;2022-12-05T14:13:55;11.32;;;8.50;;
23236;SDS011;11787;52.018;8.570;2022-12-05T14:18:54;10.93;;;9.25;;
23236;SDS011;11787;52.018;8.570;2022-12-05T14:21:35;11.88;;;9.38;;
23236;SDS011;11787;52.018;8.570;2022-12-05T14:32:35;11.00;;;9.13;;
23236;SDS011;11787;52.018;8.570;2022-12-05T14:37:40;12.15;;;10.25;;
23236;SDS011;11787;52.018;8.570;2022-12-05T14:43:01;10.32;;;8.80;;
23236;SDS011;11787;52.018;8.570;2022-12-05T14:58:36;12.35;;;9.57;;
23236;SDS011;11787;52.018;8.570;2022-12-05T15:01:18;10.93;;;9.52;;
23236;SDS011;11787;52.018;8.570;2022-12-05T15:03:58;13.05;;;11.35;;
23236;SDS011;11787;52.018;8.570;2022-12-05T15:07:09;13.23;;;10.05;;
23236;SDS011;11787;52.018;8.570;2022-12-05T15:09:44;12.60;;;10.07;;
23236;SDS011;11787;52.018;8.570;2022-12-05T15:12:37;15.13;;;11.57;;
23236;SDS011;11787;52.018;8.570;2022-12-05T15:15:11;16.17;;;10.95;;
23236;SDS011;11787;52.018;8.570;2022-12-05T15:23:54;16.95;;;11.98;;
23236;SDS011;11787;52.018;8.570;2022-12-05T15:26:24;14.15;;;12.05;;
23236;SDS011;11787;52.018;8.570;2022-12-05T15:31:28;15.85;;;12.30;;
23236;SDS011;11787;52.018;8.570;2022-12-05T15:33:57;13.82;;;10.82;;
23236;SDS011;11787;52.018;8.570;2022-12-05T15:36:28;13.57;;;10.48;;
23236;SDS011;11787;52.018;8.570;2022-12-05T15:39:05;13.95;;;11.45;;
23236;SDS011;11787;52.018;8.570;2022-12-05T15:41:42;15.68;;;11.50;;
23236;SDS011;11787;52.018;8.570;2022-12-05T15:44:10;14.60;;;10.93;;
23236;SDS011;11787;52.018;8.570;2022-12-05T15:46:35;14.50;;;10.98;;
23236;SDS011;11787;52.018;8.570;2022-12-05T15:49:01;12.77;;;10.32;;
23236;SDS011;11787;52.018;8.570;2022-12-05T15:51:41;16.20;;;11.77;;
23236;SDS011;11787;52.018;8.570;2022-12-05T15:54:12;13.52;;;10.75;;
23236;SDS011;11787;52.018;8.570;2022-12-05T15:56:47;13.63;;;10.48;;
23236;SDS011;11787;52.018;8.570;2022-12-05T15:59:18;14.75;;;10.35;;
23236;SDS011;11787;52.018;8.570;2022-12-05T16:01:51;13.10;;;10.40;;
23236;SDS011;11787;52.018;8.570;2022-12-05T16:06:55;14.30;;;11.32;;
23236;SDS011;11787;52.018;8.570;2022-12-05T16:09:27;13.15;;;10.52;;
23236;SDS011;11787;52.018;8.570;2022-12-05T16:11:59;13.65;;;10.10;;
23236;SDS011;11787;52.018;8.570;2022-12-05T16:14:32;15.95;;;10.63;;
23236;SDS011;11787;52.018;8.570;2022-12-05T16:17:00;12.82;;;10.48;;
23236;SDS011;11787;52.018;8.570;2022-12-05T16:19:27;12.73;;;10.32;;
23236;SDS011;11787;52.018;8.570;2022-12-05T16:24:41;13.57;;;10.25;;
23236;SDS011;11787;52.018;8.570;2022-12-05T16:29:39;14.40;;;11.05;;
23236;SDS011;11787;52.018;8.570;2022-12-05T16:32:17;14.77;;;9.93;;
23236;SDS011;11787;52.018;8.570;2022-12-05T16:34:47;12.15;;;9.65;;
23236;SDS011;11787;52.018;8.570;2022-12-05T16:37:24;12.63;;;9.93;;
23236;SDS011;11787;52.018;8.570;2022-12-05T16:39:51;12.45;;;9.70;;
23236;SDS011;11787;52.018;8.570;2022-12-05T16:42:20;11.82;;;8.98;;
23236;SDS011;11787;52.018;8.570;2022-12-05T16:44:58;10.50;;;8.57;;
23236;SDS011;11787;52.018;8.570;2022-12-05T16:50:31;9.57;;;7.47;;
23236;SDS011;11787;52.018;8.570;2022-12-05T16:53:03;9.15;;;7.35;;
23236;SDS011;11787;52.018;8.570;2022-12-05T16:55:40;7.97;;;7.15;;
23236;SDS011;11787;52.018;8.570;2022-12-05T16:58:12;11.00;;;7.68;;
23236;SDS011;11787;52.018;8.570;2022-12-05T17:00:43;8.23;;;7.30;;
23236;SDS011;11787;52.018;8.570;2022-12-05T17:06:30;8.00;;;6.93;;
23236;SDS011;11787;52.018;8.570;2022-12-05T17:12:20;7.32;;;5.88;;
23236;SDS011;11787;52.018;8.570;2022-12-05T17:14:47;8.20;;;6.70;;
23236;SDS011;11787;52.018;8.570;2022-12-05T17:17:13;7.45;;;6.10;;
23236;SDS011;11787;52.018;8.570;2022-12-05T17:19:40;9.68;;;6.68;;
23236;SDS011;11787;52.018;8.570;2022-12-05T17:22:05;8.77;;;6.63;;
23236;SDS011;11787;52.018;8.570;2022-12-05T17:24:31;8.45;;;6.47;;
23236;SDS011;11787;52.018;8.570;2022-12-05T17:26:56;7.20;;;6.50;;
23236;SDS011;11787;52.018;8.570;2022-12-05T17:29:22;8.25;;;6.97;;
23236;SDS011;11787;52.018;8.570;2022-12-05T17:31:48;8.25;;;6.68;;
23236;SDS011;11787;52.018;8.570;2022-12-05T17:34:14;8.27;;;6.47;;
23236;SDS011;11787;52.018;8.570;2022-12-05T17:40:03;8.55;;;6.57;;
23236;SDS011;11787;52.018;8.570;2022-12-05T17:42:29;9.15;;;6.70;;
23236;SDS011;11787;52.018;8.570;2022-12-05T17:44:55;8.93;;;6.43;;
23236;SDS011;11787;52.018;8.570;2022-12-05T17:47:20;8.38;;;6.65;;
23236;SDS011;11787;52.018;8.570;2022-12-05T17:49:46;8.70;;;7.47;;
23236;SDS011;11787;52.018;8.570;2022-12-05T17:52:12;11.75;;;9.07;;
23236;SDS011;11787;52.018;8.570;2022-12-05T17:54:37;14.02;;;10.90;;
23236;SDS011;11787;52.018;8.570;2022-12-05T17:57:03;9.73;;;7.68;;
23236;SDS011;11787;52.018;8.570;2022-12-05T17:59:28;6.55;;;5.85;;
23236;SDS011;11787;52.018;8.570;2022-12-05T18:01:54;6.90;;;5.68;;
23236;SDS011;11787;52.018;8.570;2022-12-05T18:04:19;7.28;;;6.45;;
23236;SDS011;11787;52.018;8.570;2022-12-05T18:06:46;10.93;;;8.07;;
23236;SDS011;11787;52.018;8.570;2022-12-05T18:09:11;12.63;;;8.23;;
23236;SDS011;11787;52.018;8.570;2022-12-05T18:11:37;10.52;;;8.13;;
23236;SDS011;11787;52.018;8.570;2022-12-05T18:14:02;9.48;;;7.38;;
23236;SDS011;11787;52.018;8.570;2022-12-05T18:16:28;12.05;;;8.40;;
23236;SDS011;11787;52.018;8.570;2022-12-05T18:18:54;11.07;;;8.43;;
23236;SDS011;11787;52.018;8.570;2022-12-05T18:24:41;13.23;;;8.98;;
23236;SDS011;11787;52.018;8.570;2022-12-05T18:27:07;11.48;;;8.95;;
23236;SDS011;11787;52.018;8.570;2022-12-05T18:29:32;12.75;;;9.38;;
23236;SDS011;11787;52.018;8.570;2022-12-05T18:31:58;12.23;;;9.27;;
23236;SDS011;11787;52.018;8.570;2022-12-05T18:34:24;13.88;;;10.43;;
23236;SDS011;11787;52.018;8.570;2022-12-05T18:36:49;13.07;;;9.93;;
23236;SDS011;11787;52.018;8.570;2022-12-05T18:39:15;11.25;;;8.93;;
23236;SDS011;11787;52.018;8.570;2022-12-05T18:41:41;13.00;;;10.00;;
23236;SDS011;11787;52.018;8.570;2022-12-05T18:44:07;12.25;;;9.95;;
23236;SDS011;11787;52.018;8.570;2022-12-05T18:46:34;10.80;;;8.77;;
23236;SDS011;11787;52.018;8.570;2022-12-05T18:49:01;12.70;;;9.68;;
23236;SDS011;11787;52.018;8.570;2022-12-05T18:51:27;11.30;;;8.95;;
23236;SDS011;11787;52.018;8.570;2022-12-05T18:53:52;11.93;;;8.88;;
23236;SDS011;11787;52.018;8.570;2022-12-05T18:59:40;11.50;;;8.02;;
23236;SDS011;11787;52.018;8.570;2022-12-05T19:02:07;9.70;;;7.35;;
23236;SDS011;11787;52.018;8.570;2022-12-05T19:04:33;9.13;;;7.38;;